sensor_id;sensor_type;location;lat;lon;timestamp;P1;durP1;ratioP1;P2;durP2;ratioP2
10904;SDS011;5505;51.450;9.254;2022-08-11T00:01:25;1.30;;;1.20;;
10904;SDS011;5505;51.450;9.254;2022-08-11T00:04:13;2.60;;;1.10;;
10904;SDS011;5505;51.450;9.254;2022-08-11T00:07:02;4.40;;;1.47;;
10904;SDS011;5505;51.450;9.254;2022-08-11T00:09:51;1.30;;;1.20;;
10904;SDS011;5505;51.450;9.254;2022-08-11T00:12:41;1.83;;;1.20;;
10904;SDS011;5505;51.450;9.254;2022-08-11T00:15:36;2.73;;;0.93;;
10904;SDS011;5505;51.450;9.254;2022-08-11T00:18:26;1.80;;;1.30;;
10904;SDS011;5505;51.450;9.254;2022-08-11T00:21:14;2.37;;;1.27;;
10904;SDS011;5505;51.450;9.254;2022-08-11T00:24:01;4.57;;;1.17;;
10904;SDS011;5505;51.450;9.254;2022-08-11T00:26:49;1.47;;;1.20;;
10904;SDS011;5505;51.450;9.254;2022-08-11T00:29:38;1.17;;;1.07;;
10904;SDS011;5505;51.450;9.254;2022-08-11T00:32:25;1.90;;;1.20;;
10904;SDS011;5505;51.450;9.254;2022-08-11T00:35:14;1.43;;;1.17;;
10904;SDS011;5505;51.450;9.254;2022-08-11T00:38:02;3.50;;;1.20;;
10904;SDS011;5505;51.450;9.254;2022-08-11T00:40:52;2.23;;;1.40;;
10904;SDS011;5505;51.450;9.254;2022-08-11T00:43:50;5.50;;;1.40;;
10904;SDS011;5505;51.450;9.254;2022-08-11T00:47:08;1.97;;;1.00;;
10904;SDS011;5505;51.450;9.254;2022-08-11T00:50:03;3.30;;;1.27;;
10904;SDS011;5505;51.450;9.254;2022-08-11T00:53:00;1.17;;;1.10;;
10904;SDS011;5505;51.450;9.254;2022-08-11T00:59:26;1.57;;;1.20;;
10904;SDS011;5505;51.450;9.254;2022-08-11T01:02:43;2.03;;;1.10;;
10904;SDS011;5505;51.450;9.254;2022-08-11T01:05:36;1.27;;;0.90;;
10904;SDS011;5505;51.450;9.254;2022-08-11T01:08:41;1.40;;;1.30;;
10904;SDS011;5505;51.450;9.254;2022-08-11T01:11:55;6.93;;;1.30;;
10904;SDS011;5505;51.450;9.254;2022-08-11T01:15:23;1.47;;;1.10;;
10904;SDS011;5505;51.450;9.254;2022-08-11T01:21:59;2.10;;;1.03;;
10904;SDS011;5505;51.450;9.254;2022-08-11T01:28:51;1.90;;;1.40;;
10904;SDS011;5505;51.450;9.254;2022-08-11T01:39:03;2.57;;;1.33;;
10904;SDS011;5505;51.450;9.254;2022-08-11T01:42:31;1.97;;;0.97;;
10904;SDS011;5505;51.450;9.254;2022-08-11T01:46:00;1.73;;;1.20;;
10904;SDS011;5505;51.450;9.254;2022-08-11T01:48:53;1.23;;;1.13;;
10904;SDS011;5505;51.450;9.254;2022-08-11T01:51:51;2.23;;;1.17;;
10904;SDS011;5505;51.450;9.254;2022-08-11T01:54:51;1.20;;;1.10;;
10904;SDS011;5505;51.450;9.254;2022-08-11T01:57:55;1.40;;;1.00;;
10904;SDS011;5505;51.450;9.254;2022-08-11T02:00:52;1.80;;;1.30;;
10904;SDS011;5505;51.450;9.254;2022-08-11T02:03:49;0.93;;;0.90;;
10904;SDS011;5505;51.450;9.254;2022-08-11T02:06:40;2.30;;;1.40;;
10904;SDS011;5505;51.450;9.254;2022-08-11T02:09:59;1.17;;;1.07;;
10904;SDS011;5505;51.450;9.254;2022-08-11T02:13:12;1.37;;;1.10;;
10904;SDS011;5505;51.450;9.254;2022-08-11T02:16:03;2.83;;;1.20;;
10904;SDS011;5505;51.450;9.254;2022-08-11T02:19:00;1.20;;;1.07;;
10904;SDS011;5505;51.450;9.254;2022-08-11T02:22:16;1.40;;;1.20;;
10904;SDS011;5505;51.450;9.254;2022-08-11T02:25:30;1.30;;;1.20;;
10904;SDS011;5505;51.450;9.254;2022-08-11T02:28:25;1.43;;;1.00;;
10904;SDS011;5505;51.450;9.254;2022-08-11T02:31:14;1.63;;;1.10;;
10904;SDS011;5505;51.450;9.254;2022-08-11T02:34:31;1.43;;;1.33;;
10904;SDS011;5505;51.450;9.254;2022-08-11T02:37:31;2.90;;;1.30;;
10904;SDS011;5505;51.450;9.254;2022-08-11T02:40:35;1.30;;;1.20;;
10904;SDS011;5505;51.450;9.254;2022-08-11T02:43:34;1.50;;;1.40;;
10904;SDS011;5505;51.450;9.254;2022-08-11T02:46:27;2.90;;;1.33;;
10904;SDS011;5505;51.450;9.254;2022-08-11T02:49:25;2.27;;;1.40;;
10904;SDS011;5505;51.450;9.254;2022-08-11T02:52:40;3.13;;;1.40;;
10904;SDS011;5505;51.450;9.254;2022-08-11T02:55:36;3.67;;;1.60;;
10904;SDS011;5505;51.450;9.254;2022-08-11T02:58:43;1.50;;;1.40;;
10904;SDS011;5505;51.450;9.254;2022-08-11T03:01:52;4.50;;;1.23;;
10904;SDS011;5505;51.450;9.254;2022-08-11T03:04:47;5.00;;;1.30;;
10904;SDS011;5505;51.450;9.254;2022-08-11T03:07:46;3.63;;;1.40;;
10904;SDS011;5505;51.450;9.254;2022-08-11T03:10:54;1.70;;;1.33;;
10904;SDS011;5505;51.450;9.254;2022-08-11T03:14:08;2.93;;;1.50;;
10904;SDS011;5505;51.450;9.254;2022-08-11T03:17:20;1.80;;;1.30;;
10904;SDS011;5505;51.450;9.254;2022-08-11T03:20:21;4.23;;;1.50;;
10904;SDS011;5505;51.450;9.254;2022-08-11T03:23:17;1.37;;;1.27;;
10904;SDS011;5505;51.450;9.254;2022-08-11T03:26:14;3.53;;;1.30;;
10904;SDS011;5505;51.450;9.254;2022-08-11T03:29:11;5.90;;;1.50;;
10904;SDS011;5505;51.450;9.254;2022-08-11T03:32:06;1.60;;;1.50;;
10904;SDS011;5505;51.450;9.254;2022-08-11T03:35:04;1.77;;;1.20;;
10904;SDS011;5505;51.450;9.254;2022-08-11T03:37:54;1.43;;;1.33;;
10904;SDS011;5505;51.450;9.254;2022-08-11T03:40:50;2.43;;;1.40;;
10904;SDS011;5505;51.450;9.254;2022-08-11T03:44:19;4.47;;;1.73;;
10904;SDS011;5505;51.450;9.254;2022-08-11T03:47:17;3.03;;;1.40;;
10904;SDS011;5505;51.450;9.254;2022-08-11T03:50:21;3.50;;;1.60;;
10904;SDS011;5505;51.450;9.254;2022-08-11T03:53:40;2.40;;;1.47;;
10904;SDS011;5505;51.450;9.254;2022-08-11T03:56:47;2.97;;;1.60;;
10904;SDS011;5505;51.450;9.254;2022-08-11T04:00:13;2.67;;;1.70;;
10904;SDS011;5505;51.450;9.254;2022-08-11T04:03:18;4.23;;;1.90;;
10904;SDS011;5505;51.450;9.254;2022-08-11T04:10:17;2.83;;;1.80;;
10904;SDS011;5505;51.450;9.254;2022-08-11T04:13:44;5.07;;;1.50;;
10904;SDS011;5505;51.450;9.254;2022-08-11T04:17:16;3.03;;;1.63;;
10904;SDS011;5505;51.450;9.254;2022-08-11T04:24:15;5.20;;;1.87;;
10904;SDS011;5505;51.450;9.254;2022-08-11T04:27:26;5.33;;;1.60;;
10904;SDS011;5505;51.450;9.254;2022-08-11T04:30:34;3.10;;;1.80;;
10904;SDS011;5505;51.450;9.254;2022-08-11T04:33:42;1.97;;;1.63;;
10904;SDS011;5505;51.450;9.254;2022-08-11T04:36:52;3.70;;;1.97;;
10904;SDS011;5505;51.450;9.254;2022-08-11T04:40:17;3.17;;;2.13;;
10904;SDS011;5505;51.450;9.254;2022-08-11T04:43:49;2.70;;;1.90;;
10904;SDS011;5505;51.450;9.254;2022-08-11T04:47:09;4.93;;;1.83;;
10904;SDS011;5505;51.450;9.254;2022-08-11T04:50:29;2.60;;;1.80;;
10904;SDS011;5505;51.450;9.254;2022-08-11T04:53:49;3.17;;;1.77;;
10904;SDS011;5505;51.450;9.254;2022-08-11T04:57:03;1.87;;;1.57;;
10904;SDS011;5505;51.450;9.254;2022-08-11T05:00:12;2.13;;;1.70;;
10904;SDS011;5505;51.450;9.254;2022-08-11T05:03:34;4.57;;;1.80;;
10904;SDS011;5505;51.450;9.254;2022-08-11T05:07:10;6.00;;;2.23;;
10904;SDS011;5505;51.450;9.254;2022-08-11T05:10:16;3.67;;;1.87;;
10904;SDS011;5505;51.450;9.254;2022-08-11T05:13:11;3.20;;;1.90;;
10904;SDS011;5505;51.450;9.254;2022-08-11T05:16:26;3.00;;;1.83;;
10904;SDS011;5505;51.450;9.254;2022-08-11T05:19:33;2.37;;;2.17;;
10904;SDS011;5505;51.450;9.254;2022-08-11T05:22:41;3.93;;;1.80;;
10904;SDS011;5505;51.450;9.254;2022-08-11T05:25:51;3.80;;;1.80;;
10904;SDS011;5505;51.450;9.254;2022-08-11T05:29:00;3.90;;;1.80;;
10904;SDS011;5505;51.450;9.254;2022-08-11T05:32:08;4.70;;;1.90;;
10904;SDS011;5505;51.450;9.254;2022-08-11T05:35:15;2.57;;;1.93;;
10904;SDS011;5505;51.450;9.254;2022-08-11T05:38:12;1.70;;;1.60;;
10904;SDS011;5505;51.450;9.254;2022-08-11T05:41:22;3.17;;;1.97;;
10904;SDS011;5505;51.450;9.254;2022-08-11T05:44:29;3.23;;;2.00;;
10904;SDS011;5505;51.450;9.254;2022-08-11T05:47:34;2.20;;;2.00;;
10904;SDS011;5505;51.450;9.254;2022-08-11T05:50:39;1.87;;;1.73;;
10904;SDS011;5505;51.450;9.254;2022-08-11T05:53:48;5.27;;;2.10;;
10904;SDS011;5505;51.450;9.254;2022-08-11T05:56:55;3.77;;;2.00;;
10904;SDS011;5505;51.450;9.254;2022-08-11T05:59:46;1.97;;;1.77;;
10904;SDS011;5505;51.450;9.254;2022-08-11T06:02:39;2.43;;;1.83;;
10904;SDS011;5505;51.450;9.254;2022-08-11T06:05:31;2.00;;;1.67;;
10904;SDS011;5505;51.450;9.254;2022-08-11T06:08:18;3.00;;;2.00;;
10904;SDS011;5505;51.450;9.254;2022-08-11T06:11:15;2.40;;;1.73;;
10904;SDS011;5505;51.450;9.254;2022-08-11T06:14:03;4.47;;;1.70;;
10904;SDS011;5505;51.450;9.254;2022-08-11T06:16:51;3.30;;;1.50;;
10904;SDS011;5505;51.450;9.254;2022-08-11T06:19:45;1.90;;;1.60;;
10904;SDS011;5505;51.450;9.254;2022-08-11T06:22:33;3.00;;;2.07;;
10904;SDS011;5505;51.450;9.254;2022-08-11T06:25:20;1.80;;;1.53;;
10904;SDS011;5505;51.450;9.254;2022-08-11T06:28:16;3.43;;;1.60;;
10904;SDS011;5505;51.450;9.254;2022-08-11T06:31:10;2.07;;;1.60;;
10904;SDS011;5505;51.450;9.254;2022-08-11T06:34:03;1.50;;;1.40;;
10904;SDS011;5505;51.450;9.254;2022-08-11T06:36:56;1.57;;;1.40;;
10904;SDS011;5505;51.450;9.254;2022-08-11T06:39:59;2.03;;;1.40;;
10904;SDS011;5505;51.450;9.254;2022-08-11T06:42:53;3.37;;;1.50;;
10904;SDS011;5505;51.450;9.254;2022-08-11T06:45:47;2.30;;;1.53;;
10904;SDS011;5505;51.450;9.254;2022-08-11T06:48:38;2.47;;;1.50;;
10904;SDS011;5505;51.450;9.254;2022-08-11T06:51:25;1.43;;;1.33;;
10904;SDS011;5505;51.450;9.254;2022-08-11T06:54:12;2.03;;;1.20;;
10904;SDS011;5505;51.450;9.254;2022-08-11T06:56:59;4.40;;;1.30;;
10904;SDS011;5505;51.450;9.254;2022-08-11T07:00:05;3.40;;;1.30;;
10904;SDS011;5505;51.450;9.254;2022-08-11T07:03:15;1.90;;;1.20;;
10904;SDS011;5505;51.450;9.254;2022-08-11T07:06:05;2.90;;;1.20;;
10904;SDS011;5505;51.450;9.254;2022-08-11T07:09:12;4.03;;;1.00;;
10904;SDS011;5505;51.450;9.254;2022-08-11T07:12:39;3.53;;;1.00;;
10904;SDS011;5505;51.450;9.254;2022-08-11T07:15:45;3.47;;;1.07;;
10904;SDS011;5505;51.450;9.254;2022-08-11T07:18:37;6.83;;;1.10;;
10904;SDS011;5505;51.450;9.254;2022-08-11T07:21:42;3.40;;;1.17;;
10904;SDS011;5505;51.450;9.254;2022-08-11T07:24:51;1.80;;;0.87;;
10904;SDS011;5505;51.450;9.254;2022-08-11T07:28:02;2.53;;;0.93;;
10904;SDS011;5505;51.450;9.254;2022-08-11T07:31:09;8.23;;;1.13;;
10904;SDS011;5505;51.450;9.254;2022-08-11T07:34:03;1.47;;;0.87;;
10904;SDS011;5505;51.450;9.254;2022-08-11T07:37:03;1.00;;;0.90;;
10904;SDS011;5505;51.450;9.254;2022-08-11T07:39:54;4.87;;;1.00;;
10904;SDS011;5505;51.450;9.254;2022-08-11T07:42:43;3.03;;;1.00;;
10904;SDS011;5505;51.450;9.254;2022-08-11T07:45:30;1.07;;;0.93;;
10904;SDS011;5505;51.450;9.254;2022-08-11T07:48:36;2.00;;;0.80;;
10904;SDS011;5505;51.450;9.254;2022-08-11T07:51:45;1.57;;;1.23;;
10904;SDS011;5505;51.450;9.254;2022-08-11T07:54:51;2.20;;;1.00;;
10904;SDS011;5505;51.450;9.254;2022-08-11T07:57:38;3.93;;;1.30;;
10904;SDS011;5505;51.450;9.254;2022-08-11T08:00:44;3.83;;;1.17;;
10904;SDS011;5505;51.450;9.254;2022-08-11T08:03:51;1.90;;;1.00;;
10904;SDS011;5505;51.450;9.254;2022-08-11T08:06:58;5.23;;;1.40;;
10904;SDS011;5505;51.450;9.254;2022-08-11T08:10:06;4.00;;;0.87;;
10904;SDS011;5505;51.450;9.254;2022-08-11T08:13:12;2.40;;;1.00;;
10904;SDS011;5505;51.450;9.254;2022-08-11T08:16:17;2.63;;;1.30;;
10904;SDS011;5505;51.450;9.254;2022-08-11T08:19:23;1.90;;;1.20;;
10904;SDS011;5505;51.450;9.254;2022-08-11T08:22:12;2.37;;;1.30;;
10904;SDS011;5505;51.450;9.254;2022-08-11T08:25:02;2.63;;;1.13;;
10904;SDS011;5505;51.450;9.254;2022-08-11T08:27:51;3.00;;;1.23;;
10904;SDS011;5505;51.450;9.254;2022-08-11T08:30:38;2.47;;;1.10;;
10904;SDS011;5505;51.450;9.254;2022-08-11T08:33:33;2.30;;;1.20;;
10904;SDS011;5505;51.450;9.254;2022-08-11T08:36:22;5.30;;;1.50;;
10904;SDS011;5505;51.450;9.254;2022-08-11T08:39:10;2.47;;;1.27;;
10904;SDS011;5505;51.450;9.254;2022-08-11T08:41:58;4.70;;;1.33;;
10904;SDS011;5505;51.450;9.254;2022-08-11T08:44:49;1.87;;;1.30;;
10904;SDS011;5505;51.450;9.254;2022-08-11T08:47:42;4.97;;;1.13;;
10904;SDS011;5505;51.450;9.254;2022-08-11T08:50:34;2.30;;;1.27;;
10904;SDS011;5505;51.450;9.254;2022-08-11T08:53:43;4.80;;;1.30;;
10904;SDS011;5505;51.450;9.254;2022-08-11T08:56:36;3.60;;;1.37;;
10904;SDS011;5505;51.450;9.254;2022-08-11T08:59:26;4.60;;;1.40;;
10904;SDS011;5505;51.450;9.254;2022-08-11T09:02:13;4.40;;;1.40;;
10904;SDS011;5505;51.450;9.254;2022-08-11T09:05:04;3.40;;;1.20;;
10904;SDS011;5505;51.450;9.254;2022-08-11T09:07:53;4.50;;;1.50;;
10904;SDS011;5505;51.450;9.254;2022-08-11T09:10:42;2.90;;;1.40;;
10904;SDS011;5505;51.450;9.254;2022-08-11T09:13:33;4.03;;;1.40;;
10904;SDS011;5505;51.450;9.254;2022-08-11T09:16:20;3.23;;;1.40;;
10904;SDS011;5505;51.450;9.254;2022-08-11T09:19:09;2.80;;;1.40;;
10904;SDS011;5505;51.450;9.254;2022-08-11T09:22:01;6.80;;;1.60;;
10904;SDS011;5505;51.450;9.254;2022-08-11T09:25:11;2.80;;;1.47;;
10904;SDS011;5505;51.450;9.254;2022-08-11T09:28:16;3.23;;;1.50;;
10904;SDS011;5505;51.450;9.254;2022-08-11T09:31:07;6.83;;;1.70;;
10904;SDS011;5505;51.450;9.254;2022-08-11T09:33:56;2.13;;;1.50;;
10904;SDS011;5505;51.450;9.254;2022-08-11T09:36:44;3.57;;;1.83;;
10904;SDS011;5505;51.450;9.254;2022-08-11T09:39:49;4.73;;;1.57;;
10904;SDS011;5505;51.450;9.254;2022-08-11T09:42:54;6.90;;;1.83;;
10904;SDS011;5505;51.450;9.254;2022-08-11T09:45:59;2.53;;;1.50;;
10904;SDS011;5505;51.450;9.254;2022-08-11T09:48:48;3.13;;;1.55;;
10904;SDS011;5505;51.450;9.254;2022-08-11T09:51:37;3.75;;;1.58;;
10904;SDS011;5505;51.450;9.254;2022-08-11T09:54:26;3.47;;;1.60;;
10904;SDS011;5505;51.450;9.254;2022-08-11T09:57:13;3.33;;;2.03;;
10904;SDS011;5505;51.450;9.254;2022-08-11T10:00:24;4.10;;;1.67;;
10904;SDS011;5505;51.450;9.254;2022-08-11T10:03:14;1.88;;;1.67;;
10904;SDS011;5505;51.450;9.254;2022-08-11T10:06:04;5.73;;;2.10;;
10904;SDS011;5505;51.450;9.254;2022-08-11T10:09:09;3.97;;;1.67;;
10904;SDS011;5505;51.450;9.254;2022-08-11T10:11:57;2.47;;;1.55;;
10904;SDS011;5505;51.450;9.254;2022-08-11T10:14:47;3.15;;;1.77;;
10904;SDS011;5505;51.450;9.254;2022-08-11T10:17:57;4.97;;;1.60;;
10904;SDS011;5505;51.450;9.254;2022-08-11T10:21:02;4.60;;;1.60;;
10904;SDS011;5505;51.450;9.254;2022-08-11T10:23:54;2.63;;;1.55;;
10904;SDS011;5505;51.450;9.254;2022-08-11T10:27:02;3.00;;;1.50;;
10904;SDS011;5505;51.450;9.254;2022-08-11T10:29:50;3.20;;;1.53;;
10904;SDS011;5505;51.450;9.254;2022-08-11T10:33:02;3.10;;;1.88;;
10904;SDS011;5505;51.450;9.254;2022-08-11T10:36:09;3.80;;;1.60;;
10904;SDS011;5505;51.450;9.254;2022-08-11T10:38:59;2.63;;;1.80;;
10904;SDS011;5505;51.450;9.254;2022-08-11T10:41:47;3.40;;;1.80;;
10904;SDS011;5505;51.450;9.254;2022-08-11T10:44:52;8.83;;;1.97;;
10904;SDS011;5505;51.450;9.254;2022-08-11T10:47:42;3.15;;;1.80;;
10904;SDS011;5505;51.450;9.254;2022-08-11T10:50:28;2.83;;;1.57;;
10904;SDS011;5505;51.450;9.254;2022-08-11T10:53:35;2.63;;;1.60;;
10904;SDS011;5505;51.450;9.254;2022-08-11T10:56:42;3.85;;;1.50;;
10904;SDS011;5505;51.450;9.254;2022-08-11T10:59:46;6.40;;;1.50;;
10904;SDS011;5505;51.450;9.254;2022-08-11T11:02:33;3.27;;;1.73;;
10904;SDS011;5505;51.450;9.254;2022-08-11T11:05:21;6.38;;;1.85;;
10904;SDS011;5505;51.450;9.254;2022-08-11T11:08:14;2.67;;;1.50;;
10904;SDS011;5505;51.450;9.254;2022-08-11T11:11:18;1.80;;;1.45;;
10904;SDS011;5505;51.450;9.254;2022-08-11T11:14:05;4.28;;;1.80;;
10904;SDS011;5505;51.450;9.254;2022-08-11T11:17:10;6.35;;;1.88;;
10904;SDS011;5505;51.450;9.254;2022-08-11T11:20:17;2.28;;;1.70;;
10904;SDS011;5505;51.450;9.254;2022-08-11T11:23:10;3.30;;;2.05;;
10904;SDS011;5505;51.450;9.254;2022-08-11T11:26:07;5.57;;;1.75;;
10904;SDS011;5505;51.450;9.254;2022-08-11T11:29:18;4.13;;;1.70;;
10904;SDS011;5505;51.450;9.254;2022-08-11T11:32:16;2.55;;;1.77;;
10904;SDS011;5505;51.450;9.254;2022-08-11T11:35:24;3.67;;;1.75;;
10904;SDS011;5505;51.450;9.254;2022-08-11T11:38:16;3.50;;;1.50;;
10904;SDS011;5505;51.450;9.254;2022-08-11T11:41:03;2.27;;;1.43;;
10904;SDS011;5505;51.450;9.254;2022-08-11T11:44:08;1.60;;;1.50;;
10904;SDS011;5505;51.450;9.254;2022-08-11T11:46:59;1.73;;;1.63;;
10904;SDS011;5505;51.450;9.254;2022-08-11T11:49:47;3.15;;;1.50;;
10904;SDS011;5505;51.450;9.254;2022-08-11T11:52:34;1.55;;;1.45;;
10904;SDS011;5505;51.450;9.254;2022-08-11T11:55:24;1.58;;;1.45;;
10904;SDS011;5505;51.450;9.254;2022-08-11T11:58:12;2.70;;;1.63;;
10904;SDS011;5505;51.450;9.254;2022-08-11T12:01:16;5.70;;;1.80;;
10904;SDS011;5505;51.450;9.254;2022-08-11T12:04:09;3.03;;;1.60;;
10904;SDS011;5505;51.450;9.254;2022-08-11T12:06:58;2.13;;;1.55;;
10904;SDS011;5505;51.450;9.254;2022-08-11T12:09:59;3.60;;;1.70;;
10904;SDS011;5505;51.450;9.254;2022-08-11T12:12:47;2.85;;;1.60;;
10904;SDS011;5505;51.450;9.254;2022-08-11T12:15:52;2.40;;;1.45;;
10904;SDS011;5505;51.450;9.254;2022-08-11T12:18:40;11.70;;;2.03;;
10904;SDS011;5505;51.450;9.254;2022-08-11T12:21:32;1.92;;;1.50;;
10904;SDS011;5505;51.450;9.254;2022-08-11T12:24:21;4.72;;;1.65;;
10904;SDS011;5505;51.450;9.254;2022-08-11T12:27:26;3.53;;;1.77;;
10904;SDS011;5505;51.450;9.254;2022-08-11T12:30:15;4.80;;;1.60;;
10904;SDS011;5505;51.450;9.254;2022-08-11T12:33:04;2.08;;;1.48;;
10904;SDS011;5505;51.450;9.254;2022-08-11T12:35:54;5.13;;;1.60;;
10904;SDS011;5505;51.450;9.254;2022-08-11T12:38:46;4.68;;;1.83;;
10904;SDS011;5505;51.450;9.254;2022-08-11T12:41:36;3.92;;;1.70;;
10904;SDS011;5505;51.450;9.254;2022-08-11T12:44:42;9.23;;;1.80;;
10904;SDS011;5505;51.450;9.254;2022-08-11T12:47:48;2.28;;;1.67;;
10904;SDS011;5505;51.450;9.254;2022-08-11T12:50:55;3.92;;;1.60;;
10904;SDS011;5505;51.450;9.254;2022-08-11T12:54:07;2.58;;;1.60;;
10904;SDS011;5505;51.450;9.254;2022-08-11T12:56:59;3.67;;;1.58;;
10904;SDS011;5505;51.450;9.254;2022-08-11T13:00:05;2.40;;;1.70;;
10904;SDS011;5505;51.450;9.254;2022-08-11T13:03:11;4.68;;;1.60;;
10904;SDS011;5505;51.450;9.254;2022-08-11T13:06:17;2.65;;;1.70;;
10904;SDS011;5505;51.450;9.254;2022-08-11T13:09:06;3.20;;;1.63;;
10904;SDS011;5505;51.450;9.254;2022-08-11T13:11:56;1.83;;;1.42;;
10904;SDS011;5505;51.450;9.254;2022-08-11T13:15:00;2.55;;;1.75;;
10904;SDS011;5505;51.450;9.254;2022-08-11T13:17:48;2.75;;;1.50;;
10904;SDS011;5505;51.450;9.254;2022-08-11T13:20:36;3.60;;;1.52;;
10904;SDS011;5505;51.450;9.254;2022-08-11T13:23:23;6.80;;;1.90;;
10904;SDS011;5505;51.450;9.254;2022-08-11T13:26:14;3.40;;;1.55;;
10904;SDS011;5505;51.450;9.254;2022-08-11T13:29:01;1.60;;;1.50;;
10904;SDS011;5505;51.450;9.254;2022-08-11T13:31:48;3.03;;;1.52;;
10904;SDS011;5505;51.450;9.254;2022-08-11T13:34:36;4.07;;;1.80;;
10904;SDS011;5505;51.450;9.254;2022-08-11T13:37:26;5.18;;;1.70;;
10904;SDS011;5505;51.450;9.254;2022-08-11T13:40:13;2.00;;;1.70;;
10904;SDS011;5505;51.450;9.254;2022-08-11T13:43:04;6.00;;;1.77;;
10904;SDS011;5505;51.450;9.254;2022-08-11T13:45:51;3.63;;;1.70;;
10904;SDS011;5505;51.450;9.254;2022-08-11T13:48:59;6.03;;;1.40;;
10904;SDS011;5505;51.450;9.254;2022-08-11T13:51:46;5.53;;;1.67;;
10904;SDS011;5505;51.450;9.254;2022-08-11T13:54:34;2.00;;;1.67;;
10904;SDS011;5505;51.450;9.254;2022-08-11T13:57:23;4.85;;;1.85;;
10904;SDS011;5505;51.450;9.254;2022-08-11T14:00:12;2.55;;;1.60;;
10904;SDS011;5505;51.450;9.254;2022-08-11T14:02:59;1.98;;;1.45;;
10904;SDS011;5505;51.450;9.254;2022-08-11T14:05:48;2.17;;;1.20;;
10904;SDS011;5505;51.450;9.254;2022-08-11T14:08:37;4.17;;;1.50;;
10904;SDS011;5505;51.450;9.254;2022-08-11T14:11:25;1.65;;;1.40;;
10904;SDS011;5505;51.450;9.254;2022-08-11T14:14:31;1.95;;;1.40;;
10904;SDS011;5505;51.450;9.254;2022-08-11T14:17:23;4.50;;;1.48;;
10904;SDS011;5505;51.450;9.254;2022-08-11T14:20:10;3.45;;;1.65;;
10904;SDS011;5505;51.450;9.254;2022-08-11T14:23:01;1.98;;;1.33;;
10904;SDS011;5505;51.450;9.254;2022-08-11T14:25:47;4.45;;;1.50;;
10904;SDS011;5505;51.450;9.254;2022-08-11T14:28:53;2.75;;;1.35;;
10904;SDS011;5505;51.450;9.254;2022-08-11T14:31:46;4.65;;;1.50;;
10904;SDS011;5505;51.450;9.254;2022-08-11T14:34:38;4.28;;;1.60;;
10904;SDS011;5505;51.450;9.254;2022-08-11T14:37:26;4.70;;;1.33;;
10904;SDS011;5505;51.450;9.254;2022-08-11T14:40:14;4.45;;;1.80;;
10904;SDS011;5505;51.450;9.254;2022-08-11T14:43:16;4.82;;;1.70;;
10904;SDS011;5505;51.450;9.254;2022-08-11T14:46:21;1.67;;;1.55;;
10904;SDS011;5505;51.450;9.254;2022-08-11T14:49:25;5.80;;;1.70;;
10904;SDS011;5505;51.450;9.254;2022-08-11T14:52:15;2.83;;;1.50;;
10904;SDS011;5505;51.450;9.254;2022-08-11T14:55:05;3.33;;;1.60;;
10904;SDS011;5505;51.450;9.254;2022-08-11T14:58:12;5.63;;;1.50;;
10904;SDS011;5505;51.450;9.254;2022-08-11T15:01:02;2.72;;;1.50;;
10904;SDS011;5505;51.450;9.254;2022-08-11T15:04:09;3.92;;;1.60;;
10904;SDS011;5505;51.450;9.254;2022-08-11T15:06:55;1.95;;;1.50;;
10904;SDS011;5505;51.450;9.254;2022-08-11T15:09:44;4.45;;;1.63;;
10904;SDS011;5505;51.450;9.254;2022-08-11T15:12:32;1.83;;;1.50;;
10904;SDS011;5505;51.450;9.254;2022-08-11T15:15:20;1.80;;;1.65;;
10904;SDS011;5505;51.450;9.254;2022-08-11T15:18:25;4.30;;;1.60;;
10904;SDS011;5505;51.450;9.254;2022-08-11T15:21:13;3.60;;;1.40;;
10904;SDS011;5505;51.450;9.254;2022-08-11T15:24:17;2.65;;;1.30;;
10904;SDS011;5505;51.450;9.254;2022-08-11T15:27:07;2.70;;;1.60;;
10904;SDS011;5505;51.450;9.254;2022-08-11T15:30:15;5.40;;;1.80;;
10904;SDS011;5505;51.450;9.254;2022-08-11T15:33:19;2.20;;;1.50;;
10904;SDS011;5505;51.450;9.254;2022-08-11T15:36:25;3.20;;;1.50;;
10904;SDS011;5505;51.450;9.254;2022-08-11T15:39:34;2.58;;;1.67;;
10904;SDS011;5505;51.450;9.254;2022-08-11T15:42:50;1.80;;;1.50;;
10904;SDS011;5505;51.450;9.254;2022-08-11T15:46:02;4.70;;;1.40;;
10904;SDS011;5505;51.450;9.254;2022-08-11T15:48:55;2.08;;;1.70;;
10904;SDS011;5505;51.450;9.254;2022-08-11T15:51:45;2.90;;;1.40;;
10904;SDS011;5505;51.450;9.254;2022-08-11T15:54:37;3.65;;;1.80;;
10904;SDS011;5505;51.450;9.254;2022-08-11T15:57:27;3.78;;;1.70;;
10904;SDS011;5505;51.450;9.254;2022-08-11T16:00:34;4.30;;;1.58;;
10904;SDS011;5505;51.450;9.254;2022-08-11T16:03:41;3.10;;;1.55;;
10904;SDS011;5505;51.450;9.254;2022-08-11T16:06:54;3.20;;;1.70;;
10904;SDS011;5505;51.450;9.254;2022-08-11T16:09:44;2.28;;;2.00;;
10904;SDS011;5505;51.450;9.254;2022-08-11T16:12:34;3.38;;;1.40;;
10904;SDS011;5505;51.450;9.254;2022-08-11T16:15:24;3.97;;;1.48;;
10904;SDS011;5505;51.450;9.254;2022-08-11T16:18:30;2.35;;;1.60;;
10904;SDS011;5505;51.450;9.254;2022-08-11T16:21:26;2.72;;;1.80;;
10904;SDS011;5505;51.450;9.254;2022-08-11T16:24:18;3.50;;;1.63;;
10904;SDS011;5505;51.450;9.254;2022-08-11T16:27:06;5.93;;;1.80;;
10904;SDS011;5505;51.450;9.254;2022-08-11T16:29:54;3.33;;;1.80;;
10904;SDS011;5505;51.450;9.254;2022-08-11T16:32:42;3.42;;;1.73;;
10904;SDS011;5505;51.450;9.254;2022-08-11T16:35:34;3.50;;;1.70;;
10904;SDS011;5505;51.450;9.254;2022-08-11T16:38:40;3.40;;;1.70;;
10904;SDS011;5505;51.450;9.254;2022-08-11T16:41:29;3.20;;;2.17;;
10904;SDS011;5505;51.450;9.254;2022-08-11T16:44:32;3.08;;;1.80;;
10904;SDS011;5505;51.450;9.254;2022-08-11T16:47:40;1.95;;;1.60;;
10904;SDS011;5505;51.450;9.254;2022-08-11T16:50:29;3.58;;;1.58;;
10904;SDS011;5505;51.450;9.254;2022-08-11T16:53:18;3.75;;;1.85;;
10904;SDS011;5505;51.450;9.254;2022-08-11T16:56:05;4.32;;;1.92;;
10904;SDS011;5505;51.450;9.254;2022-08-11T16:58:54;3.17;;;1.55;;
10904;SDS011;5505;51.450;9.254;2022-08-11T17:02:01;3.17;;;1.60;;
10904;SDS011;5505;51.450;9.254;2022-08-11T17:04:52;3.88;;;2.10;;
10904;SDS011;5505;51.450;9.254;2022-08-11T17:07:59;2.65;;;1.65;;
10904;SDS011;5505;51.450;9.254;2022-08-11T17:11:06;4.10;;;1.80;;
10904;SDS011;5505;51.450;9.254;2022-08-11T17:14:13;3.40;;;1.70;;
10904;SDS011;5505;51.450;9.254;2022-08-11T17:17:06;1.98;;;1.60;;
10904;SDS011;5505;51.450;9.254;2022-08-11T17:20:00;1.90;;;1.70;;
10904;SDS011;5505;51.450;9.254;2022-08-11T17:22:51;3.33;;;1.90;;
10904;SDS011;5505;51.450;9.254;2022-08-11T17:25:57;2.95;;;1.77;;
10904;SDS011;5505;51.450;9.254;2022-08-11T17:28:46;4.93;;;1.83;;
10904;SDS011;5505;51.450;9.254;2022-08-11T17:31:36;4.30;;;1.58;;
10904;SDS011;5505;51.450;9.254;2022-08-11T17:34:42;2.25;;;1.65;;
10904;SDS011;5505;51.450;9.254;2022-08-11T17:37:49;4.65;;;1.73;;
10904;SDS011;5505;51.450;9.254;2022-08-11T17:40:37;3.90;;;1.90;;
10904;SDS011;5505;51.450;9.254;2022-08-11T17:43:47;5.80;;;1.90;;
10904;SDS011;5505;51.450;9.254;2022-08-11T17:46:52;3.47;;;1.88;;
10904;SDS011;5505;51.450;9.254;2022-08-11T17:49:57;4.77;;;2.00;;
10904;SDS011;5505;51.450;9.254;2022-08-11T17:52:46;3.95;;;1.63;;
10904;SDS011;5505;51.450;9.254;2022-08-11T17:55:51;10.27;;;2.30;;
10904;SDS011;5505;51.450;9.254;2022-08-11T17:58:58;5.10;;;1.83;;
10904;SDS011;5505;51.450;9.254;2022-08-11T18:02:04;5.40;;;1.73;;
10904;SDS011;5505;51.450;9.254;2022-08-11T18:05:06;2.05;;;1.65;;
10904;SDS011;5505;51.450;9.254;2022-08-11T18:07:55;2.85;;;1.90;;
10904;SDS011;5505;51.450;9.254;2022-08-11T18:11:01;4.78;;;1.67;;
10904;SDS011;5505;51.450;9.254;2022-08-11T18:14:08;1.92;;;1.80;;
10904;SDS011;5505;51.450;9.254;2022-08-11T18:17:14;3.50;;;1.80;;
10904;SDS011;5505;51.450;9.254;2022-08-11T18:20:18;6.85;;;2.08;;
10904;SDS011;5505;51.450;9.254;2022-08-11T18:23:23;2.08;;;1.52;;
10904;SDS011;5505;51.450;9.254;2022-08-11T18:26:27;3.67;;;1.73;;
10904;SDS011;5505;51.450;9.254;2022-08-11T18:29:33;4.25;;;1.80;;
10904;SDS011;5505;51.450;9.254;2022-08-11T18:32:41;6.17;;;1.83;;
10904;SDS011;5505;51.450;9.254;2022-08-11T18:35:46;4.27;;;1.80;;
10904;SDS011;5505;51.450;9.254;2022-08-11T18:38:55;3.67;;;1.90;;